createdAt,value
2022-11-28T00:03:51.839Z,0.1
2022-11-28T00:08:49.348Z,0.1
2022-11-28T00:13:49.012Z,0.1
2022-11-28T00:18:49.228Z,0.1
2022-11-28T00:23:48.093Z,0.1
2022-11-28T00:28:48.035Z,0.1
2022-11-28T00:33:47.637Z,0.1
2022-11-28T00:38:47.403Z,0.1
2022-11-28T00:43:46.828Z,0.1
2022-11-28T00:48:47.279Z,0.1
2022-11-28T00:53:45.692Z,0.1
2022-11-28T00:58:45.497Z,0.1
2022-11-28T01:03:45.127Z,0.1
2022-11-28T01:08:45.630Z,0.1
2022-11-28T01:13:44.878Z,0.1
2022-11-28T01:18:44.723Z,0.1
2022-11-28T01:23:44.366Z,0.1
2022-11-28T01:28:44.954Z,0.1
2022-11-28T01:33:43.934Z,0.1
2022-11-28T01:38:42.852Z,0.1
2022-11-28T01:43:42.289Z,0.1
2022-11-28T01:48:42.376Z,0.1
2022-11-28T01:53:41.155Z,0.1
2022-11-28T01:58:40.731Z,0.1
2022-11-28T02:03:40.202Z,0.1
2022-11-28T02:08:41.033Z,0.1
2022-11-28T02:13:40.738Z,0.1
2022-11-28T02:18:41.632Z,0.1
2022-11-28T02:23:39.240Z,0.1
2022-11-28T02:28:38.851Z,0.1
2022-11-28T02:33:38.893Z,0.1
2022-11-28T02:38:38.830Z,0.1
2022-11-28T02:43:37.839Z,0.1
2022-11-28T02:48:37.831Z,0.1
2022-11-28T02:53:37.349Z,0.1
2022-11-28T02:58:38.224Z,0.1
2022-11-28T03:00:00.109Z,0.1
2022-11-28T03:04:58.690Z,0.1
2022-11-28T03:09:58.088Z,0.1
2022-11-28T03:14:58.010Z,0.1
2022-11-28T03:19:56.975Z,0.1
2022-11-28T03:24:57.070Z,0.1
2022-11-28T03:29:55.956Z,0.1
2022-11-28T03:34:56.001Z,0.1
2022-11-28T03:39:55.747Z,0.1
2022-11-28T03:44:56.036Z,0.1
2022-11-28T03:49:54.733Z,0.1
2022-11-28T03:54:54.322Z,0.1
2022-11-28T03:59:14.357Z,0.1
2022-11-28T04:04:14.307Z,0.1
2022-11-28T04:09:15.992Z,0.1
2022-11-28T04:14:13.168Z,0.1
2022-11-28T04:19:12.506Z,0.1
2022-11-28T04:24:12.778Z,0.1
2022-11-28T04:29:12.186Z,0.1
2022-11-28T04:34:10.449Z,0.1
2022-11-28T04:39:09.741Z,0.1
2022-11-28T04:44:10.009Z,0.1
2022-11-28T04:49:08.783Z,0.1
2022-11-28T04:54:08.608Z,0.1
2022-11-28T04:59:06.797Z,0.1
2022-11-28T05:04:06.905Z,0.1
2022-11-28T05:09:06.266Z,0.1
2022-11-28T05:14:06.897Z,0.1
2022-11-28T05:19:04.935Z,0.1
2022-11-28T05:24:05.098Z,0.1
2022-11-28T05:29:04.639Z,0.1
2022-11-28T05:34:04.861Z,0.1
2022-11-28T05:39:03.870Z,0.1
2022-11-28T05:44:03.920Z,0.1
2022-11-28T05:49:03.050Z,0.1
2022-11-28T05:54:03.171Z,0.1
2022-11-28T05:58:45.145Z,0.1
2022-11-28T06:03:45.342Z,0.1
2022-11-28T06:08:42.909Z,0.1
2022-11-28T06:13:43.077Z,0.1
2022-11-28T06:18:42.031Z,0.1
2022-11-28T06:23:41.344Z,0.1
2022-11-28T06:28:40.723Z,0.1
2022-11-28T06:33:40.884Z,0.2
2022-11-28T06:38:40.445Z,0.4
2022-11-28T06:43:41.108Z,0.6
2022-11-28T06:48:39.129Z,1
2022-11-28T06:53:39.002Z,1.5
2022-11-28T06:58:38.638Z,2.1
2022-11-28T07:03:38.951Z,3.3
2022-11-28T07:08:38.013Z,4.6
2022-11-28T07:13:37.748Z,5.3
2022-11-28T07:18:37.213Z,6.6
2022-11-28T07:23:37.350Z,7.8
2022-11-28T07:28:37.702Z,8.9
2022-11-28T07:33:37.200Z,10.6
2022-11-28T07:38:35.235Z,12.3
2022-11-28T07:43:34.662Z,13.9
2022-11-28T07:48:34.794Z,15.7
2022-11-28T07:53:34.418Z,16.1
2022-11-28T07:58:33.855Z,15.8
2022-11-28T07:59:55.941Z,15.8
2022-11-28T08:04:56.902Z,16.5
2022-11-28T08:09:56.137Z,17.1
2022-11-28T08:14:54.496Z,18
2022-11-28T08:19:54.184Z,19.1
2022-11-28T08:24:54.446Z,20.3
2022-11-28T08:29:55.964Z,21.3
2022-11-28T08:34:53.341Z,21.4
2022-11-28T08:39:53.308Z,23.2
2022-11-28T08:44:52.852Z,24.1
2022-11-28T08:49:53.312Z,27.6
2022-11-28T08:54:53.187Z,32.1
2022-11-28T08:58:52.852Z,34.5
2022-11-28T09:03:52.790Z,37.2
2022-11-28T09:08:52.012Z,39.9
2022-11-28T09:13:52.272Z,40.5
2022-11-28T09:18:51.553Z,40.2
2022-11-28T09:23:50.901Z,39.5
2022-11-28T09:28:51.149Z,39.1
2022-11-28T09:33:51.437Z,39.4
2022-11-28T09:38:50.934Z,35.2
2022-11-28T09:43:55.956Z,34.5
2022-11-28T09:48:47.923Z,42.3
2022-11-28T09:53:48.291Z,45.5
2022-11-28T09:58:47.678Z,45.1
2022-11-28T10:03:47.180Z,50.7
2022-11-28T10:08:46.414Z,58.7
2022-11-28T10:14:09.596Z,63.9
2022-11-28T10:18:46.383Z,62.8
2022-11-28T10:23:45.988Z,66.5
2022-11-28T10:28:44.201Z,68.7
2022-11-28T10:33:43.849Z,71.2
2022-11-28T10:38:43.781Z,71.5
2022-11-28T10:43:43.160Z,75.6
2022-11-28T10:48:42.956Z,78.3
2022-11-28T10:53:42.755Z,77.9
2022-11-28T10:58:42.621Z,78.4
2022-11-28T11:00:05.133Z,80.4
2022-11-28T11:05:05.322Z,84.9
2022-11-28T11:10:02.476Z,80.5
2022-11-28T11:15:03.050Z,75.5
2022-11-28T11:20:02.823Z,77.1
2022-11-28T11:25:02.033Z,77.5
2022-11-28T11:30:00.991Z,76.8
2022-11-28T11:35:00.752Z,75.6
2022-11-28T11:40:00.723Z,88.9
2022-11-28T11:45:00.821Z,107.3
2022-11-28T11:49:59.886Z,113.7
2022-11-28T11:54:58.658Z,117.4
2022-11-28T11:59:28.987Z,125.6
2022-11-28T12:04:53.995Z,126.2
2022-11-28T12:09:29.073Z,108.4
2022-11-28T12:14:29.529Z,91
2022-11-28T12:19:29.558Z,85.2
2022-11-28T12:24:29.605Z,83.4
2022-11-28T12:29:28.474Z,79.7
2022-11-28T12:34:29.132Z,77.6
2022-11-28T12:39:29.002Z,78.1
2022-11-28T12:44:29.485Z,89.2
2022-11-28T12:49:28.638Z,92.3
2022-11-28T12:54:28.871Z,91.2
2022-11-28T12:59:10.144Z,92.3
2022-11-28T13:04:08.512Z,91.7
2022-11-28T13:09:08.508Z,89.1
2022-11-28T13:14:08.348Z,85.7
2022-11-28T13:19:07.312Z,82.5
2022-11-28T13:24:09.112Z,77.4
2022-11-28T13:29:06.375Z,71.3
2022-11-28T13:34:06.257Z,61
2022-11-28T13:39:14.547Z,52.2
2022-11-28T13:44:06.863Z,49
2022-11-28T13:49:21.556Z,47.9
2022-11-28T13:54:04.819Z,45.5
2022-11-28T13:58:47.536Z,40.6
2022-11-28T14:03:47.447Z,37
2022-11-28T14:08:46.868Z,36
2022-11-28T14:13:46.541Z,33.2
2022-11-28T14:18:59.542Z,29.7
2022-11-28T14:23:45.772Z,27
2022-11-28T14:28:45.359Z,23.9
2022-11-28T14:33:43.402Z,22.7
2022-11-28T14:38:43.434Z,22.7
2022-11-28T14:43:43.714Z,19.4
2022-11-28T14:48:42.856Z,16.6
2022-11-28T14:53:42.223Z,15.3
2022-11-28T14:58:41.270Z,13.8
2022-11-28T15:03:41.196Z,12.2
2022-11-28T15:08:40.991Z,10.1
2022-11-28T15:13:41.592Z,7.9
2022-11-28T15:18:39.692Z,6.1
2022-11-28T15:23:39.640Z,4.6
2022-11-28T15:28:39.427Z,4
2022-11-28T15:33:39.317Z,1.9
2022-11-28T15:38:38.524Z,1.1
2022-11-28T15:43:38.211Z,0.6
2022-11-28T15:48:41.695Z,0.4
2022-11-28T15:53:37.874Z,0.2
2022-11-28T15:58:37.159Z,0.2
2022-11-28T15:59:58.749Z,0.2
2022-11-28T16:04:58.660Z,0.1
2022-11-28T16:09:58.208Z,0.1
2022-11-28T16:14:57.528Z,0.1
2022-11-28T16:19:56.544Z,0.1
2022-11-28T16:24:56.377Z,0.1
2022-11-28T16:29:55.914Z,0.1
2022-11-28T16:34:56.272Z,0.1
2022-11-28T16:39:56.152Z,0.1
2022-11-28T16:44:54.852Z,0.1
2022-11-28T16:49:54.396Z,0.1
2022-11-28T16:54:54.348Z,0.1
2022-11-28T16:59:14.521Z,0.1
2022-11-28T17:04:13.954Z,0.1
2022-11-28T17:09:13.426Z,0.1
2022-11-28T17:14:15.292Z,0.1
2022-11-28T17:19:12.871Z,0.1
2022-11-28T17:24:13.143Z,0.1
2022-11-28T17:29:11.732Z,0.1
2022-11-28T17:34:11.832Z,0.1
2022-11-28T17:39:11.998Z,0.1
2022-11-28T17:44:10.663Z,0.1
2022-11-28T17:49:11.032Z,0.1
2022-11-28T17:54:09.540Z,0.1
2022-11-28T17:59:07.347Z,0.1
2022-11-28T18:04:08.994Z,0.1
2022-11-28T18:09:13.486Z,0.1
2022-11-28T18:14:06.421Z,0.1
2022-11-28T18:19:05.728Z,0.1
2022-11-28T18:24:05.971Z,0.1
2022-11-28T18:29:05.580Z,0.1
2022-11-28T18:34:05.385Z,0.1
2022-11-28T18:39:04.631Z,0.1
2022-11-28T18:44:04.644Z,0.1
2022-11-28T18:49:04.434Z,0.1
2022-11-28T18:54:04.206Z,0.1
2022-11-28T18:58:48.048Z,0.1
2022-11-28T19:03:45.889Z,0.1
2022-11-28T19:08:45.448Z,0.1
2022-11-28T19:13:44.486Z,0.1
2022-11-28T19:18:43.597Z,0.1
2022-11-28T19:23:43.423Z,0.1
2022-11-28T19:28:43.288Z,0.1
2022-11-28T19:33:43.244Z,0.1
2022-11-28T19:38:43.562Z,0.1
2022-11-28T19:43:42.385Z,0.1
2022-11-28T19:48:41.971Z,0.1
2022-11-28T19:53:41.514Z,0.1
2022-11-28T19:58:41.711Z,0.1
2022-11-28T20:03:40.608Z,0.1
2022-11-28T20:08:40.311Z,0.1
2022-11-28T20:13:39.792Z,0.1
2022-11-28T20:18:40.688Z,0.1
2022-11-28T20:23:40.563Z,0.1
2022-11-28T20:28:40.710Z,0.1
2022-11-28T20:33:37.991Z,0.1
2022-11-28T20:38:37.875Z,0.1
2022-11-28T20:43:37.805Z,0.1
2022-11-28T20:48:37.766Z,0.1
2022-11-28T20:53:37.295Z,0.1
2022-11-28T20:58:36.732Z,0.1
2022-11-28T20:59:58.831Z,0.1
2022-11-28T21:04:59.198Z,0.1
2022-11-28T21:09:57.388Z,0.1
2022-11-28T21:14:57.429Z,0.1
2022-11-28T21:19:56.963Z,0.1
2022-11-28T21:24:57.158Z,0.1
2022-11-28T21:29:56.426Z,0.1
2022-11-28T21:35:05.335Z,0.1
2022-11-28T21:39:55.731Z,0.1
2022-11-28T21:44:55.701Z,0.1
2022-11-28T21:49:56.288Z,0.1
2022-11-28T21:54:55.637Z,0.1
2022-11-28T21:59:16.032Z,0.1
2022-11-28T22:04:15.426Z,0.1
2022-11-28T22:09:15.348Z,0.1
2022-11-28T22:14:14.360Z,0.1
2022-11-28T22:19:13.457Z,0.1
2022-11-28T22:24:13.455Z,0.1
2022-11-28T22:29:13.841Z,0.1
2022-11-28T22:34:13.807Z,0.1
2022-11-28T22:39:12.123Z,0.1
2022-11-28T22:44:12.376Z,0.1
2022-11-28T22:49:11.882Z,0.1
2022-11-28T22:54:12.039Z,0.1
2022-11-28T22:59:05.255Z,0.1
2022-11-28T23:04:05.460Z,0.1
2022-11-28T23:09:04.681Z,0.1
2022-11-28T23:14:04.523Z,0.1
2022-11-28T23:19:04.312Z,0.1
2022-11-28T23:24:04.732Z,0.1
2022-11-28T23:29:01.764Z,0.1
2022-11-28T23:34:02.013Z,0.1
2022-11-28T23:39:01.858Z,0.1
2022-11-28T23:44:01.312Z,0.1
2022-11-28T23:49:00.375Z,0.1
2022-11-28T23:54:00.285Z,0.1
2022-11-28T23:58:44.015Z,0.1
